createdAt,value
2018-09-20T00:02:14.498Z,41.10
2018-09-20T00:04:49.072Z,40.97
2018-09-20T00:07:19.392Z,42.80
2018-09-20T00:09:49.906Z,42.13
2018-09-20T00:12:21.266Z,41.33
2018-09-20T00:14:51.964Z,41.27
2018-09-20T00:17:22.206Z,41.20
2018-09-20T00:19:52.661Z,41.27
2018-09-20T00:22:23.685Z,42.10
2018-09-20T00:24:54.044Z,40.47
2018-09-20T00:27:24.495Z,40.63
2018-09-20T00:29:54.745Z,40.70
2018-09-20T00:32:29.627Z,40.23
2018-09-20T00:35:01.264Z,40.53
2018-09-20T00:37:33.039Z,40.00
2018-09-20T00:40:03.833Z,40.40
2018-09-20T00:42:35.089Z,40.37
2018-09-20T00:45:06.260Z,40.03
2018-09-20T00:47:36.922Z,39.80
2018-09-20T00:50:07.820Z,41.20
2018-09-20T00:52:38.900Z,41.30
2018-09-20T00:55:09.386Z,41.23
2018-09-20T00:57:40.538Z,41.97
2018-09-20T01:00:11.778Z,41.73
2018-09-20T01:02:42.308Z,42.00
2018-09-20T01:05:12.766Z,41.40
2018-09-20T01:07:44.848Z,41.13
2018-09-20T01:10:16.791Z,40.87
2018-09-20T01:12:47.439Z,42.43
2018-09-20T01:15:18.454Z,40.50
2018-09-20T01:17:48.548Z,41.03
2018-09-20T01:20:20.269Z,40.87
2018-09-20T01:22:52.829Z,40.43
2018-09-20T01:25:23.292Z,40.70
2018-09-20T01:27:53.964Z,41.53
2018-09-20T01:30:24.340Z,41.10
2018-09-20T01:32:55.417Z,40.27
2018-09-20T01:35:25.765Z,40.17
2018-09-20T01:37:56.196Z,40.63
2018-09-20T01:40:26.360Z,40.97
2018-09-20T01:42:57.973Z,40.60
2018-09-20T01:45:28.598Z,40.80
2018-09-20T01:48:00.714Z,40.87
2018-09-20T01:50:30.788Z,40.20
2018-09-20T01:53:00.983Z,40.17
2018-09-20T01:55:31.409Z,40.40
2018-09-20T01:58:01.722Z,40.37
2018-09-20T02:00:32.898Z,40.73
2018-09-20T02:03:03.394Z,40.40
2018-09-20T02:05:33.731Z,40.27
2018-09-20T02:08:05.301Z,40.17
2018-09-20T02:10:36.356Z,40.50
2018-09-20T02:13:07.348Z,39.63
2018-09-20T02:15:37.890Z,39.80
2018-09-20T02:18:08.539Z,39.77
2018-09-20T02:20:38.705Z,39.93
2018-09-20T02:23:08.771Z,40.10
2018-09-20T02:25:38.739Z,39.70
2018-09-20T02:28:10.082Z,40.00
2018-09-20T02:30:40.453Z,39.13
2018-09-20T02:33:11.224Z,39.60
2018-09-20T02:35:42.989Z,39.90
2018-09-20T02:38:13.844Z,39.80
2018-09-20T02:40:44.863Z,39.60
2018-09-20T02:43:16.086Z,39.83
2018-09-20T02:45:46.066Z,40.10
2018-09-20T02:48:17.175Z,39.93
2018-09-20T02:50:47.646Z,40.03
2018-09-20T02:53:18.873Z,40.23
2018-09-20T02:55:49.131Z,39.60
2018-09-20T02:58:19.244Z,39.67
2018-09-20T03:00:50.485Z,64.17
2018-09-20T03:03:20.614Z,40.13
2018-09-20T03:05:51.236Z,39.70
2018-09-20T03:08:28.088Z,39.30
2018-09-20T03:10:58.575Z,39.97
2018-09-20T03:13:28.951Z,39.60
2018-09-20T03:15:59.387Z,39.83
2018-09-20T03:18:29.606Z,39.53
2018-09-20T03:21:00.152Z,39.67
2018-09-20T03:23:30.636Z,39.77
2018-09-20T03:26:00.600Z,39.50
2018-09-20T03:28:31.554Z,39.63
2018-09-20T03:31:02.954Z,40.00
2018-09-20T03:33:35.058Z,39.60
2018-09-20T03:36:07.446Z,39.80
2018-09-20T03:38:37.689Z,39.53
2018-09-20T03:41:07.767Z,40.10
2018-09-20T03:43:39.190Z,40.53
2018-09-20T03:46:09.622Z,38.63
2018-09-20T03:48:39.637Z,40.00
2018-09-20T03:51:09.524Z,39.87
2018-09-20T03:53:40.068Z,39.97
2018-09-20T03:56:11.255Z,37.87
2018-09-20T03:58:41.714Z,38.83
2018-09-20T04:01:12.095Z,39.27
2018-09-20T04:03:42.526Z,39.57
2018-09-20T04:06:12.722Z,39.57
2018-09-20T04:08:42.942Z,39.37
2018-09-20T04:11:12.987Z,39.70
2018-09-20T04:13:43.397Z,39.93
2018-09-20T04:16:13.612Z,39.50
2018-09-20T04:18:43.675Z,39.47
2018-09-20T04:21:17.969Z,39.40
2018-09-20T04:23:48.425Z,39.50
2018-09-20T04:26:18.824Z,39.47
2018-09-20T04:28:49.410Z,39.07
2018-09-20T04:31:19.908Z,39.37
2018-09-20T04:33:49.975Z,39.30
2018-09-20T04:36:21.717Z,39.70
2018-09-20T04:38:51.799Z,39.07
2018-09-20T04:41:22.144Z,39.40
2018-09-20T04:43:52.526Z,39.33
2018-09-20T04:46:23.106Z,39.13
2018-09-20T04:48:53.366Z,39.27
2018-09-20T04:51:23.865Z,39.87
2018-09-20T04:53:55.510Z,40.20
2018-09-20T04:56:26.123Z,39.97
2018-09-20T04:58:58.220Z,39.77
2018-09-20T05:01:29.427Z,40.10
2018-09-20T05:03:59.837Z,39.67
2018-09-20T05:06:30.589Z,40.10
2018-09-20T05:09:00.721Z,39.77
2018-09-20T05:11:31.883Z,39.83
2018-09-20T05:14:02.171Z,39.87
2018-09-20T05:16:32.156Z,39.97
2018-09-20T05:19:02.090Z,39.63
2018-09-20T05:21:32.417Z,40.30
2018-09-20T05:24:03.272Z,39.90
2018-09-20T05:26:33.671Z,40.07
2018-09-20T05:29:04.821Z,39.53
2018-09-20T05:31:36.352Z,39.80
2018-09-20T05:34:13.352Z,39.90
2018-09-20T05:36:45.043Z,39.57
2018-09-20T05:39:15.223Z,39.63
2018-09-20T05:41:45.433Z,40.00
2018-09-20T05:44:16.139Z,39.93
2018-09-20T05:46:46.748Z,40.07
2018-09-20T05:49:16.870Z,40.10
2018-09-20T05:51:47.109Z,39.40
2018-09-20T05:54:20.751Z,40.17
2018-09-20T05:56:50.868Z,39.40
2018-09-20T05:59:57.136Z,40.10
2018-09-20T06:02:28.039Z,39.73
2018-09-20T06:04:58.375Z,39.83
2018-09-20T06:07:28.774Z,40.47
2018-09-20T06:09:59.713Z,40.13
2018-09-20T06:12:30.596Z,40.33
2018-09-20T06:15:01.385Z,38.87
2018-09-20T06:17:31.596Z,39.57
2018-09-20T06:20:03.684Z,39.60
2018-09-20T06:22:35.908Z,40.63
2018-09-20T06:25:06.950Z,40.47
2018-09-20T06:27:37.550Z,40.30
2018-09-20T06:30:08.319Z,39.97
2018-09-20T06:32:38.981Z,41.10
2018-09-20T06:35:09.281Z,41.20
2018-09-20T06:37:39.590Z,40.53
2018-09-20T06:40:11.030Z,40.07
2018-09-20T06:42:41.456Z,39.47
2018-09-20T06:45:12.866Z,39.73
2018-09-20T06:47:42.976Z,40.87
2018-09-20T06:50:13.323Z,41.00
2018-09-20T06:52:44.239Z,39.90
2018-09-20T06:55:14.613Z,40.07
2018-09-20T06:57:45.013Z,40.30
2018-09-20T07:00:16.516Z,40.43
2018-09-20T07:02:48.201Z,40.57
2018-09-20T07:05:18.529Z,40.83
2018-09-20T07:07:49.791Z,40.93
2018-09-20T07:10:19.945Z,40.53
2018-09-20T07:12:50.088Z,40.10
2018-09-20T07:15:20.287Z,41.03
2018-09-20T07:17:51.330Z,39.63
2018-09-20T07:20:24.009Z,40.03
2018-09-20T07:22:54.636Z,39.73
2018-09-20T07:25:25.514Z,39.87
2018-09-20T07:27:55.929Z,40.63
2018-09-20T07:30:26.176Z,40.27
2018-09-20T07:32:57.439Z,40.17
2018-09-20T07:35:29.189Z,40.93
2018-09-20T07:37:59.378Z,40.80
2018-09-20T07:40:29.642Z,41.20
2018-09-20T07:43:01.716Z,41.47
2018-09-20T07:45:31.780Z,40.47
2018-09-20T07:48:01.924Z,40.57
2018-09-20T07:50:33.307Z,40.43
2018-09-20T07:53:04.074Z,40.80
2018-09-20T07:55:34.589Z,41.13
2018-09-20T07:58:05.147Z,40.87
2018-09-20T08:00:36.646Z,40.53
2018-09-20T08:03:07.414Z,40.20
2018-09-20T08:05:38.164Z,40.87
2018-09-20T08:08:09.308Z,41.93
2018-09-20T08:10:39.783Z,41.53
2018-09-20T08:13:11.293Z,40.30
2018-09-20T08:15:42.852Z,40.83
2018-09-20T08:18:13.372Z,41.43
2018-09-20T08:20:43.627Z,42.10
2018-09-20T08:23:13.844Z,42.37
2018-09-20T08:25:44.408Z,41.93
2018-09-20T08:28:14.581Z,41.40
2018-09-20T08:30:44.844Z,41.30
2018-09-20T08:33:14.915Z,40.97
2018-09-20T08:35:46.197Z,41.27
2018-09-20T08:38:18.106Z,40.87
2018-09-20T08:40:48.549Z,41.40
2018-09-20T08:43:18.674Z,40.97
2018-09-20T08:45:49.419Z,40.50
2018-09-20T08:48:19.809Z,40.87
2018-09-20T08:50:50.354Z,41.67
2018-09-20T08:53:20.560Z,41.00
2018-09-20T08:55:53.648Z,41.33
2018-09-20T08:58:23.652Z,41.13
2018-09-20T09:00:54.276Z,40.83
2018-09-20T09:03:24.758Z,41.00
2018-09-20T09:05:55.589Z,41.47
2018-09-20T09:08:25.781Z,41.17
2018-09-20T09:10:56.040Z,40.63
2018-09-20T09:13:27.240Z,40.80
2018-09-20T09:15:57.734Z,40.57
2018-09-20T09:18:29.743Z,41.27
2018-09-20T09:20:59.892Z,40.40
2018-09-20T09:23:30.426Z,41.70
2018-09-20T09:26:00.744Z,40.80
2018-09-20T09:28:31.032Z,40.63
2018-09-20T09:31:01.128Z,40.57
2018-09-20T09:33:31.603Z,41.90
2018-09-20T09:36:01.838Z,41.13
2018-09-20T09:38:32.111Z,41.27
2018-09-20T09:41:02.321Z,40.73
2018-09-20T09:43:32.855Z,40.50
2018-09-20T09:46:03.269Z,41.43
2018-09-20T09:48:33.264Z,41.23
2018-09-20T09:51:03.335Z,41.40
2018-09-20T09:53:33.573Z,41.07
2018-09-20T09:56:03.742Z,41.33
2018-09-20T09:58:33.805Z,41.53
2018-09-20T10:01:03.832Z,41.30
2018-09-20T10:03:33.975Z,41.07
2018-09-20T10:06:04.073Z,40.67
2018-09-20T10:08:34.118Z,41.63
2018-09-20T10:11:04.131Z,40.73
2018-09-20T10:13:34.662Z,41.40
2018-09-20T10:16:04.852Z,41.00
2018-09-20T10:18:35.088Z,41.40
2018-09-20T10:21:05.514Z,41.23
2018-09-20T10:23:35.716Z,41.33
2018-09-20T10:26:06.585Z,41.37
2018-09-20T10:28:37.327Z,41.23
2018-09-20T10:31:07.467Z,48.43
2018-09-20T10:33:37.577Z,47.57
2018-09-20T10:36:08.116Z,46.67
2018-09-20T10:38:38.134Z,44.37
2018-09-20T10:41:08.405Z,42.53
2018-09-20T10:43:38.642Z,42.60
2018-09-20T10:46:09.764Z,41.27
2018-09-20T10:48:40.110Z,41.93
2018-09-20T10:51:10.616Z,42.53
2018-09-20T10:53:41.231Z,41.90
2018-09-20T10:56:11.508Z,43.53
2018-09-20T10:58:41.614Z,42.07
2018-09-20T11:01:11.481Z,47.67
2018-09-20T11:03:41.588Z,41.33
2018-09-20T11:06:12.148Z,40.87
2018-09-20T11:08:43.230Z,42.10
2018-09-20T11:11:13.536Z,42.07
2018-09-20T11:13:43.759Z,42.20
2018-09-20T11:16:14.259Z,40.13
2018-09-20T11:18:44.349Z,41.37
2018-09-20T11:21:14.835Z,41.83
2018-09-20T11:23:44.888Z,41.57
2018-09-20T11:26:15.316Z,42.40
2018-09-20T11:28:46.264Z,41.50
2018-09-20T11:31:16.472Z,41.43
2018-09-20T11:33:46.747Z,41.17
2018-09-20T11:36:16.875Z,41.60
2018-09-20T11:38:47.231Z,41.97
2018-09-20T11:41:17.418Z,41.33
2018-09-20T11:43:47.976Z,41.10
2018-09-20T11:46:18.926Z,41.40
2018-09-20T11:48:49.383Z,41.63
2018-09-20T11:51:20.115Z,42.00
2018-09-20T11:53:50.707Z,40.73
2018-09-20T11:56:20.840Z,41.53
2018-09-20T11:58:51.680Z,41.37
2018-09-20T12:01:21.854Z,42.00
2018-09-20T12:03:53.303Z,40.80
2018-09-20T12:06:23.425Z,42.10
2018-09-20T12:08:53.858Z,42.50
2018-09-20T12:11:23.910Z,42.87
2018-09-20T12:13:54.398Z,42.40
2018-09-20T12:16:24.622Z,42.37
2018-09-20T12:18:54.707Z,42.33
2018-09-20T12:21:25.051Z,42.53
2018-09-20T12:23:55.054Z,42.33
2018-09-20T12:26:25.537Z,42.00
2018-09-20T12:28:55.575Z,41.93
2018-09-20T12:31:26.313Z,42.50
2018-09-20T12:33:56.255Z,42.83
2018-09-20T12:36:27.092Z,43.10
2018-09-20T12:38:57.624Z,42.40
2018-09-20T12:41:27.860Z,42.33
2018-09-20T12:43:58.179Z,42.13
2018-09-20T12:46:28.276Z,42.67
2018-09-20T12:48:58.463Z,43.27
2018-09-20T12:51:28.715Z,42.70
2018-09-20T12:53:59.108Z,42.93
2018-09-20T12:56:29.309Z,43.10
2018-09-20T12:59:00.744Z,43.63
2018-09-20T13:01:31.045Z,43.77
2018-09-20T13:04:01.143Z,43.33
2018-09-20T13:06:31.420Z,43.67
2018-09-20T13:09:01.824Z,44.10
2018-09-20T13:11:32.019Z,43.10
2018-09-20T13:14:02.106Z,43.10
2018-09-20T13:16:32.241Z,43.40
2018-09-20T13:19:02.553Z,42.97
2018-09-20T13:21:32.912Z,43.53
2018-09-20T13:24:03.871Z,42.67
2018-09-20T13:26:34.379Z,42.97
2018-09-20T13:29:04.666Z,43.67
2018-09-20T13:31:34.774Z,43.83
2018-09-20T13:34:05.679Z,43.10
2018-09-20T13:36:37.294Z,44.13
2018-09-20T13:39:11.912Z,43.63
2018-09-20T13:41:42.973Z,44.33
2018-09-20T13:44:13.976Z,44.63
2018-09-20T13:46:49.439Z,42.90
2018-09-20T13:49:21.300Z,43.73
2018-09-20T13:51:51.396Z,43.93
2018-09-20T13:54:21.704Z,44.33
2018-09-20T13:56:51.696Z,44.47
2018-09-20T13:59:22.000Z,44.47
2018-09-20T14:01:52.220Z,44.13
2018-09-20T14:04:22.682Z,43.57
2018-09-20T14:06:52.786Z,44.03
2018-09-20T14:09:22.974Z,44.77
2018-09-20T14:11:53.282Z,43.83
2018-09-20T14:14:23.590Z,43.07
2018-09-20T14:16:55.183Z,43.57
2018-09-20T14:19:27.742Z,43.70
2018-09-20T14:21:58.206Z,43.93
2018-09-20T14:24:28.791Z,43.17
2018-09-20T14:27:00.254Z,44.47
2018-09-20T14:29:30.799Z,43.97
2018-09-20T14:32:01.257Z,44.37
2018-09-20T14:34:31.616Z,44.43
2018-09-20T14:37:01.761Z,44.93
2018-09-20T14:39:32.587Z,44.67
2018-09-20T14:42:02.902Z,44.67
2018-09-20T14:44:33.979Z,44.20
2018-09-20T14:47:04.574Z,43.73
2018-09-20T14:49:34.747Z,44.47
2018-09-20T14:52:06.117Z,44.67
2018-09-20T14:54:36.665Z,44.50
2018-09-20T14:57:06.690Z,44.33
2018-09-20T14:59:37.284Z,44.30
2018-09-20T15:02:07.945Z,43.87
2018-09-20T15:04:37.975Z,45.07
2018-09-20T15:07:08.146Z,44.80
2018-09-20T15:09:38.449Z,43.80
2018-09-20T15:12:08.582Z,44.13
2018-09-20T15:14:39.093Z,44.33
2018-09-20T15:17:09.446Z,44.03
2018-09-20T15:19:39.493Z,44.50
2018-09-20T15:22:10.616Z,44.13
2018-09-20T15:24:43.070Z,44.17
2018-09-20T15:27:14.547Z,44.07
2018-09-20T15:29:44.732Z,43.87
2018-09-20T15:32:16.932Z,44.60
2018-09-20T15:34:46.991Z,43.90
2018-09-20T15:37:17.431Z,43.20
2018-09-20T15:39:47.566Z,43.53
2018-09-20T15:42:17.726Z,43.97
2018-09-20T15:44:48.033Z,43.67
2018-09-20T15:47:19.030Z,44.23
2018-09-20T15:49:49.333Z,43.70
2018-09-20T15:52:20.758Z,43.80
2018-09-20T15:54:51.204Z,43.17
2018-09-20T15:57:22.024Z,42.63
2018-09-20T15:59:53.290Z,43.67
2018-09-20T16:02:24.403Z,43.87
2018-09-20T16:04:55.169Z,43.57
2018-09-20T16:07:27.116Z,42.77
2018-09-20T16:09:57.707Z,43.27
2018-09-20T16:12:27.760Z,44.70
2018-09-20T16:14:58.318Z,44.70
2018-09-20T16:17:30.041Z,43.17
2018-09-20T16:20:01.741Z,43.03
2018-09-20T16:22:32.332Z,43.73
2018-09-20T16:25:02.561Z,44.13
2018-09-20T16:27:32.957Z,44.47
2018-09-20T16:31:29.990Z,43.63
2018-09-20T16:35:32.573Z,44.00
2018-09-20T16:38:34.650Z,43.73
2018-09-20T16:41:10.044Z,43.87
2018-09-20T16:43:41.043Z,43.93
2018-09-20T16:46:12.358Z,43.90
2018-09-20T16:48:42.359Z,43.83
2018-09-20T16:51:12.789Z,44.03
2018-09-20T16:53:43.624Z,43.63
2018-09-20T16:56:13.936Z,43.40
2018-09-20T16:58:49.425Z,43.20
2018-09-20T17:01:20.320Z,42.97
2018-09-20T17:03:50.564Z,43.27
2018-09-20T17:06:22.114Z,43.30
2018-09-20T17:08:53.270Z,42.37
2018-09-20T17:11:23.690Z,43.03
2018-09-20T17:13:53.856Z,43.93
2018-09-20T17:16:24.132Z,43.70
2018-09-20T17:18:54.505Z,44.90
2018-09-20T17:21:24.720Z,44.03
2018-09-20T17:23:54.738Z,44.00
2018-09-20T17:26:25.313Z,44.17
2018-09-20T17:28:56.321Z,43.63
2018-09-20T17:31:26.264Z,44.13
2018-09-20T17:33:56.595Z,43.23
2018-09-20T17:36:27.877Z,43.63
2018-09-20T17:38:59.645Z,44.00
2018-09-20T17:41:33.038Z,43.67
2018-09-20T17:44:06.098Z,43.87
2018-09-20T17:46:37.098Z,43.77
2018-09-20T17:49:07.373Z,43.90
2018-09-20T17:51:38.677Z,44.30
2018-09-20T17:54:14.176Z,43.93
2018-09-20T17:56:47.168Z,43.67
2018-09-20T17:59:19.439Z,44.27
2018-09-20T18:01:51.988Z,44.07
2018-09-20T18:04:24.563Z,43.93
2018-09-20T18:06:57.291Z,44.87
2018-09-20T18:09:27.397Z,43.97
2018-09-20T18:11:59.178Z,43.70
2018-09-20T18:14:30.723Z,44.40
2018-09-20T18:17:02.755Z,43.77
2018-09-20T18:19:35.021Z,44.37
2018-09-20T18:22:06.896Z,44.63
2018-09-20T18:24:40.018Z,44.33
2018-09-20T18:27:11.665Z,44.40
2018-09-20T18:29:43.147Z,44.30
2018-09-20T18:32:16.367Z,44.60
2018-09-20T18:34:48.997Z,43.97
2018-09-20T18:37:21.159Z,44.30
2018-09-20T18:39:53.353Z,44.30
2018-09-20T18:42:25.948Z,44.07
2018-09-20T18:44:58.745Z,43.70
2018-09-20T18:47:31.370Z,43.40
2018-09-20T18:50:04.257Z,44.20
2018-09-20T18:52:37.212Z,44.67
2018-09-20T18:55:09.242Z,44.10
2018-09-20T18:57:39.530Z,45.13
2018-09-20T19:00:10.178Z,43.90
2018-09-20T19:02:40.736Z,44.70
2018-09-20T19:05:12.071Z,44.60
2018-09-20T19:07:42.858Z,44.00
2018-09-20T19:10:13.799Z,44.13
2018-09-20T19:12:43.959Z,44.23
2018-09-20T19:15:14.375Z,44.03
2018-09-20T19:17:44.680Z,44.20
2018-09-20T19:20:14.790Z,44.53
2018-09-20T19:22:44.856Z,44.73
2018-09-20T19:25:16.521Z,44.17
2018-09-20T19:27:46.809Z,44.87
2018-09-20T19:30:16.935Z,44.27
2018-09-20T19:32:47.247Z,44.90
2018-09-20T19:35:17.388Z,43.70
2018-09-20T19:37:47.643Z,43.13
2018-09-20T19:40:17.709Z,44.23
2018-09-20T19:42:48.449Z,44.13
2018-09-20T19:45:19.035Z,44.10
2018-09-20T19:47:50.133Z,43.97
2018-09-20T19:50:20.059Z,43.77
2018-09-20T19:52:50.435Z,43.87
2018-09-20T19:55:20.688Z,44.07
2018-09-20T19:57:51.476Z,44.23
2018-09-20T20:00:29.817Z,44.17
2018-09-20T20:03:00.235Z,44.37
2018-09-20T20:05:30.367Z,43.60
2018-09-20T20:08:00.581Z,43.53
2018-09-20T20:10:30.796Z,43.30
2018-09-20T20:13:01.094Z,44.00
2018-09-20T20:15:31.356Z,44.13
2018-09-20T20:18:02.005Z,44.37
2018-09-20T20:20:32.035Z,44.67
2018-09-20T20:23:02.382Z,44.93
2018-09-20T20:25:33.476Z,44.37
2018-09-20T20:28:03.844Z,43.63
2018-09-20T20:30:34.172Z,43.77
2018-09-20T20:33:04.543Z,45.23
2018-09-20T20:35:35.444Z,44.00
2018-09-20T20:38:05.806Z,44.73
2018-09-20T20:40:35.899Z,44.23
2018-09-20T20:43:06.889Z,43.90
2018-09-20T20:45:37.247Z,44.07
2018-09-20T20:48:07.660Z,43.83
2018-09-20T20:50:38.000Z,43.93
2018-09-20T20:53:08.576Z,44.47
2018-09-20T20:55:38.950Z,44.93
2018-09-20T20:58:09.745Z,43.17
2018-09-20T21:00:39.785Z,43.60
2018-09-20T21:03:10.105Z,43.67
2018-09-20T21:05:41.179Z,43.30
2018-09-20T21:08:12.492Z,44.10
2018-09-20T21:10:44.281Z,43.17
2018-09-20T21:13:14.753Z,44.00
2018-09-20T21:15:45.200Z,43.77
2018-09-20T21:23:06.698Z,44.17
2018-09-20T21:25:36.882Z,43.87
2018-09-20T21:28:07.637Z,43.17
2018-09-20T21:30:38.177Z,43.10
2018-09-20T21:33:08.904Z,43.23
2018-09-20T21:35:38.965Z,43.40
2018-09-20T21:38:09.755Z,43.97
2018-09-20T21:40:40.319Z,42.80
2018-09-20T21:43:11.676Z,43.53
2018-09-20T21:45:42.327Z,43.57
2018-09-20T21:48:15.747Z,43.27
2018-09-20T21:50:45.826Z,43.47
2018-09-20T21:53:16.598Z,42.77
2018-09-20T21:55:48.783Z,42.60
2018-09-20T21:58:18.990Z,43.27
2018-09-20T22:00:59.873Z,43.00
2018-09-20T22:03:30.593Z,42.77
2018-09-20T22:06:01.269Z,42.83
2018-09-20T22:08:31.548Z,42.90
2018-09-20T22:11:02.428Z,43.27
2018-09-20T22:13:33.043Z,42.17
2018-09-20T22:16:03.972Z,42.03
2018-09-20T22:18:34.584Z,43.13
2018-09-20T22:21:04.534Z,43.30
2018-09-20T22:23:34.955Z,42.17
2018-09-20T22:26:06.233Z,43.27
2018-09-20T22:28:37.432Z,41.93
2018-09-20T22:31:08.819Z,42.57
2018-09-20T22:33:39.028Z,41.47
2018-09-20T22:36:09.313Z,42.30
2018-09-20T22:38:40.377Z,42.20
2018-09-20T22:41:10.632Z,42.47
2018-09-20T22:43:42.131Z,41.97
2018-09-20T22:46:12.842Z,41.40
2018-09-20T22:48:44.291Z,41.10
2018-09-20T22:51:16.197Z,42.27
2018-09-20T22:53:47.587Z,42.03
2018-09-20T22:56:17.827Z,42.73
2018-09-20T22:58:48.711Z,42.37
2018-09-20T23:01:18.842Z,47.20
2018-09-20T23:03:50.634Z,41.40
2018-09-20T23:06:21.988Z,41.20
2018-09-20T23:08:53.182Z,42.07
2018-09-20T23:11:24.043Z,41.47
2018-09-20T23:13:54.226Z,41.07
2018-09-20T23:16:24.976Z,41.77
2018-09-20T23:18:55.176Z,41.63
2018-09-20T23:21:25.217Z,41.90
2018-09-20T23:23:56.294Z,41.50
2018-09-20T23:26:27.392Z,41.37
2018-09-20T23:28:58.534Z,41.43
2018-09-20T23:31:29.611Z,40.73
2018-09-20T23:34:00.049Z,41.10
2018-09-20T23:36:30.183Z,41.13
2018-09-20T23:39:00.650Z,41.13
2018-09-20T23:41:31.646Z,40.63
2018-09-20T23:44:02.500Z,41.07
2018-09-20T23:46:32.729Z,41.30
2018-09-20T23:49:02.879Z,41.10
2018-09-20T23:51:33.130Z,41.80
2018-09-20T23:54:04.426Z,40.47
2018-09-20T23:56:34.480Z,41.03
2018-09-20T23:59:04.785Z,40.77
